Sluisgracht — PFBE — position and weather

sailwx.info

Track history (hours):
 
Tides and Currents Weather Stations Pressure Air Temp Water Temp Dewpoint Dewpoint Depression Visibility Wind Speed Wind Dir Waves Ship Positions

Sluisgracht

Last reported at 2018-Dec-17 04:30 UTC. Time now 2018-Dec-17 04:56 UTC.
Position N 42°22' W 070°37'.

Length 173 m; beam 26 m.

Type: Cargo ship. MMSI: 244903000.

Date/timePositionNaut miles runAvg speedWind from/ knotsBaromVisibWave heightAir tempDewpointWater temp
2018-Dec-17 04:30N 42°22' W 070°37'714.5
2018-Dec-17 04:00N 42°21' W 070°27'714.5
2018-Dec-17 03:30N 42°22' W 070°18'714.2
2018-Dec-17 03:00N 42°28' W 070°14'714.7
2018-Dec-17 02:30N 42°35' W 070°11'714.5
2018-Dec-17 02:00N 42°42' W 070°08'714.0
2018-Dec-17 01:30N 42°49' W 070°05'814.1
2018-Dec-17 00:58N 42°56' W 070°02'5 0.2
2018-Dec-15 19:11N 42°55' W 069°55'210.7
2018-Dec-15 19:00N 42°54' W 069°55'510.7
2018-Dec-15 18:30N 42°48' W 069°56'510.5
2018-Dec-15 18:00N 42°43' W 069°57'510.9
2018-Dec-15 17:30N 42°38' W 069°58'610.9
2018-Dec-15 17:00N 42°32' W 069°58'510.7
2018-Dec-15 16:30N 42°27' W 069°59'510.5
2018-Dec-15 16:00N 42°22' W 069°60'5 9.8
2018-Dec-15 15:29N 42°17' W 069°58'510.5
2018-Dec-15 15:00N 42°12' W 069°55'251 9.7
2018-Dec-14 13:03N 39°03' W 073°33'418.0
2018-Dec-14 12:50N 39°02' W 073°38'5 9.4
2018-Dec-14 12:18N 38°60' W 073°44'412.9
2018-Dec-14 12:00N 38°58' W 073°49'1018.2
2018-Dec-14 11:28N 38°55' W 074°00'5 9.9
2018-Dec-14 11:01N 38°53' W 074°06'713.2
2018-Dec-14 10:30N 38°51' W 074°14'3011.7
2018-Dec-14 07:57N 38°46' W 074°51'5 8.8
2018-Dec-14 07:26N 38°46' W 074°57'6 7.7
2018-Dec-14 06:43N 38°49' W 075°03'1210.8
2018-Dec-14 05:35N 39°00' W 075°09'512.0
2018-Dec-14 05:12N 39°05' W 075°11'418.3
2018-Dec-14 05:00N 39°08' W 075°13'713.4
2018-Dec-14 04:30N 39°14' W 075°18'811.8
2018-Dec-14 03:49N 39°20' W 075°25'1416.1
2018-Dec-14 02:55N 39°33' W 075°33'2 5.3
2018-Dec-14 02:30N 39°33' W 075°35'3 6.0
2018-Dec-14 02:01N 39°33' W 075°39'7 6.9
2018-Dec-14 01:00N 39°32' W 075°48'4 6.2
2018-Dec-14 00:20N 39°31' W 075°53'2 4.8
2018-Dec-13 23:55N 39°30' W 075°56'4 7.0
2018-Dec-13 23:17N 39°27' W 075°60'3 9.8
2018-Dec-13 22:58N 39°25' W 076°02'610.3
2018-Dec-13 22:26N 39°22' W 076°09'4 9.1
2018-Dec-13 21:58N 39°19' W 076°13'4 9.6
2018-Dec-13 21:30N 39°15' W 076°14'510.3
2018-Dec-13 21:00N 39°10' W 076°18'611.2
2018-Dec-13 20:30N 39°10' W 076°25'612.0
2018-Dec-13 20:00N 39°13' W 076°32'4 7.4
2018-Dec-13 19:30N 39°15' W 076°35'0 0.7
2018-Dec-13 19:00N 39°16' W 076°35'0 0.0
2018-Dec-13 18:30N 39°16' W 076°35'0 0.0
2018-Dec-13 18:00N 39°16' W 076°35'0 0.0
2018-Dec-13 17:30N 39°16' W 076°35'0 0.0
2018-Dec-13 17:00N 39°16' W 076°35'0 0.0
2018-Dec-13 16:30N 39°16' W 076°35'0 0.0
2018-Dec-13 16:00N 39°16' W 076°35'0 0.0
2018-Dec-13 15:30N 39°16' W 076°35'0 0.0
2018-Dec-13 15:00N 39°16' W 076°35'0 0.0
2018-Dec-13 14:30N 39°16' W 076°35'0 0.0
2018-Dec-13 14:00N 39°16' W 076°35'0 0.0
2018-Dec-13 13:30N 39°16' W 076°35'0 0.0
2018-Dec-13 12:59N 39°16' W 076°35'0 0.0
2018-Dec-13 12:30N 39°16' W 076°35'0 0.0
2018-Dec-13 12:00N 39°16' W 076°35'0 0.0
2018-Dec-13 11:30N 39°16' W 076°35'0 0.0
2018-Dec-13 11:00N 39°16' W 076°35'0 0.0
2018-Dec-13 10:30N 39°16' W 076°35'0 0.0
2018-Dec-13 10:00N 39°16' W 076°35'0 0.0
2018-Dec-13 09:30N 39°16' W 076°35'0 0.0
2018-Dec-13 09:00N 39°16' W 076°35'0 0.0
2018-Dec-13 08:30N 39°16' W 076°35'0 0.0
2018-Dec-13 08:00N 39°16' W 076°35'0 0.0
2018-Dec-13 07:30N 39°16' W 076°35'0 0.0
2018-Dec-13 06:59N 39°16' W 076°35'0 0.0
2018-Dec-13 06:29N 39°16' W 076°35'0 0.0
2018-Dec-13 05:59N 39°16' W 076°35'0 0.0
2018-Dec-13 05:30N 39°16' W 076°35'0 0.0
2018-Dec-13 04:59N 39°16' W 076°35'0 0.0
2018-Dec-13 04:29N 39°16' W 076°35'0 0.0
2018-Dec-13 03:59N 39°16' W 076°35'0 0.0
2018-Dec-13 03:30N 39°16' W 076°35'0 0.0
2018-Dec-13 02:59N 39°16' W 076°35'0 0.0
2018-Dec-13 02:29N 39°16' W 076°35'0 0.0
2018-Dec-13 01:59N 39°16' W 076°35'0 0.0
2018-Dec-13 01:29N 39°16' W 076°35'0 0.0
2018-Dec-13 01:00N 39°16' W 076°35'0 0.0
2018-Dec-13 00:30N 39°16' W 076°35'0 0.0
2018-Dec-12 23:59N 39°16' W 076°35'0 0.0
2018-Dec-12 23:29N 39°16' W 076°35'0 0.0
2018-Dec-12 22:59N 39°16' W 076°35'0 0.0
2018-Dec-12 22:29N 39°16' W 076°35'0 0.0
2018-Dec-12 21:59N 39°16' W 076°35'0 0.0
2018-Dec-12 21:29N 39°16' W 076°35'0 0.0
2018-Dec-12 20:59N 39°16' W 076°35'0 0.0
2018-Dec-12 20:29N 39°16' W 076°35'0 0.0
2018-Dec-12 19:59N 39°16' W 076°35'0 0.0
2018-Dec-12 19:29N 39°16' W 076°35'0 0.0
2018-Dec-12 18:59N 39°16' W 076°35'0 0.0
2018-Dec-12 18:29N 39°16' W 076°35'0 0.0
2018-Dec-12 17:59N 39°16' W 076°35'0 0.0
2018-Dec-12 17:29N 39°16' W 076°35'0 0.0
2018-Dec-12 16:59N 39°16' W 076°35'0 0.0
2018-Dec-12 16:28N 39°16' W 076°35'0 0.0
2018-Dec-12 15:58N 39°16' W 076°35'0 0.0
2018-Dec-12 15:28N 39°16' W 076°35'0 0.0
2018-Dec-12 14:58N 39°16' W 076°35'0 0.0
2018-Dec-12 14:28N 39°16' W 076°35'0 0.0
2018-Dec-12 13:58N 39°16' W 076°35'0 0.0
2018-Dec-12 13:28N 39°16' W 076°35'0 0.0
2018-Dec-12 12:58N 39°16' W 076°35'0 0.0
2018-Dec-12 12:28N 39°16' W 076°35'0 0.0
2018-Dec-12 11:58N 39°16' W 076°35'0 0.0
2018-Dec-12 11:28N 39°16' W 076°35'0 0.0
2018-Dec-12 10:58N 39°16' W 076°35'0 0.0
2018-Dec-12 10:28N 39°16' W 076°35'0 0.0
2018-Dec-12 09:58N 39°16' W 076°35'0 0.0
2018-Dec-12 09:28N 39°16' W 076°35'0 0.0
2018-Dec-12 08:58N 39°16' W 076°35'0 0.0
2018-Dec-12 08:28N 39°16' W 076°35'0 0.0
2018-Dec-12 07:58N 39°16' W 076°35'0 0.0
2018-Dec-12 07:28N 39°16' W 076°35'0 0.0
2018-Dec-12 06:58N 39°16' W 076°35'0 0.0
2018-Dec-12 06:28N 39°16' W 076°35'0 0.0
2018-Dec-12 05:58N 39°16' W 076°35'0 0.1
2018-Dec-12 05:28N 39°16' W 076°36'0 0.1
2018-Dec-12 04:58N 39°16' W 076°36'0 0.0
2018-Dec-12 04:28N 39°16' W 076°36'0 0.0
2018-Dec-12 03:58N 39°16' W 076°36'0 0.0
2018-Dec-12 03:28N 39°16' W 076°36'0 0.0
2018-Dec-12 02:58N 39°16' W 076°36'0 0.0
2018-Dec-12 02:28N 39°16' W 076°36'0 0.0
2018-Dec-12 01:58N 39°16' W 076°36'0 0.0
2018-Dec-12 01:28N 39°16' W 076°36'0 0.0
2018-Dec-12 00:58N 39°16' W 076°36'0 0.0
2018-Dec-12 00:28N 39°16' W 076°36'0 0.0
2018-Dec-11 23:58N 39°16' W 076°36'0 0.0
2018-Dec-11 23:28N 39°16' W 076°36'0 0.0
2018-Dec-11 22:58N 39°16' W 076°36'0 0.0
2018-Dec-11 22:26N 39°16' W 076°36'0 0.0
2018-Dec-11 21:58N 39°16' W 076°36'0 0.0
2018-Dec-11 21:28N 39°16' W 076°36'0 0.0
2018-Dec-11 20:58N 39°16' W 076°36'0 0.0
2018-Dec-11 20:28N 39°16' W 076°36'0 0.0
2018-Dec-11 19:58N 39°16' W 076°36'0 0.0
2018-Dec-11 19:28N 39°16' W 076°36'0 0.0
2018-Dec-11 18:58N 39°16' W 076°36'0 0.0
2018-Dec-11 18:28N 39°16' W 076°36'0 0.0
2018-Dec-11 17:58N 39°16' W 076°36'0 0.0
2018-Dec-11 17:28N 39°16' W 076°36'0 0.0
2018-Dec-11 16:58N 39°16' W 076°36'0 0.0
2018-Dec-11 16:28N 39°16' W 076°36'0 0.0
2018-Dec-11 15:58N 39°16' W 076°36'0 0.0
2018-Dec-11 15:28N 39°16' W 076°36'0 0.0
2018-Dec-11 14:58N 39°16' W 076°36'0 0.0
2018-Dec-11 14:28N 39°16' W 076°36'0 0.0
2018-Dec-11 13:58N 39°16' W 076°36'0 0.0
2018-Dec-11 13:28N 39°16' W 076°36'0 0.0
2018-Dec-11 12:58N 39°16' W 076°36'0 0.0
2018-Dec-11 12:28N 39°16' W 076°36'0 0.0
2018-Dec-11 12:00N 39°16' W 076°36'1 1.4
2018-Dec-11 11:30N 39°15' W 076°35'3 6.1
2018-Dec-11 11:00N 39°13' W 076°32'611.4
2018-Dec-11 10:30N 39°10' W 076°26'611.7
2018-Dec-11 10:00N 39°05' W 076°24'510.9
2018-Dec-11 09:30N 38°59' W 076°23'714.1
2018-Dec-11 09:00N 38°52' W 076°24'814.2
2018-Dec-11 08:27N 38°44' W 076°26'1718.3
2018-Dec-11 07:32N 38°28' W 076°23'0 2.8
2018-Dec-11 07:30N 38°28' W 076°23'13 9.7
2018-Dec-11 06:11N 38°16' W 076°17'614.3
2018-Dec-11 05:44N 38°10' W 076°14'414.9
2018-Dec-11 05:30N 38°06' W 076°14'714.8
2018-Dec-11 05:00N 37°59' W 076°12'814.3
2018-Dec-11 04:27N 37°52' W 076°09'714.7
2018-Dec-11 03:59N 37°45' W 076°11'1413.9
2018-Dec-11 03:01N 37°33' W 076°02'1115.4
2018-Dec-11 02:19N 37°23' W 076°05'3 9.5
2018-Dec-11 02:00N 37°20' W 076°05'  
Track history (hours):
 
Tides and Currents Weather Stations Pressure Air Temp Water Temp Dewpoint Dewpoint Depression Visibility Wind Speed Wind Dir Waves Ship Positions

Sluisgracht

Last reported at 2018-Dec-17 04:30 UTC. Time now 2018-Dec-17 04:56 UTC.
Position N 42°22' W 070°37'.

Length 173 m; beam 26 m.

Type: Cargo ship. MMSI: 244903000.

Date/timePositionNaut miles runAvg speedWind from/ knotsBaromVisibWave heightAir tempDewpointWater temp
2018-Dec-17 04:30N 42°22' W 070°37'714.5
2018-Dec-17 04:00N 42°21' W 070°27'714.5
2018-Dec-17 03:30N 42°22' W 070°18'714.2
2018-Dec-17 03:00N 42°28' W 070°14'714.7
2018-Dec-17 02:30N 42°35' W 070°11'714.5
2018-Dec-17 02:00N 42°42' W 070°08'714.0
2018-Dec-17 01:30N 42°49' W 070°05'814.1
2018-Dec-17 00:58N 42°56' W 070°02'5 0.2
2018-Dec-15 19:11N 42°55' W 069°55'210.7
2018-Dec-15 19:00N 42°54' W 069°55'510.7
2018-Dec-15 18:30N 42°48' W 069°56'510.5
2018-Dec-15 18:00N 42°43' W 069°57'510.9
2018-Dec-15 17:30N 42°38' W 069°58'610.9
2018-Dec-15 17:00N 42°32' W 069°58'510.7
2018-Dec-15 16:30N 42°27' W 069°59'510.5
2018-Dec-15 16:00N 42°22' W 069°60'5 9.8
2018-Dec-15 15:29N 42°17' W 069°58'510.5
2018-Dec-15 15:00N 42°12' W 069°55'251 9.7
2018-Dec-14 13:03N 39°03' W 073°33'418.0
2018-Dec-14 12:50N 39°02' W 073°38'5 9.4
2018-Dec-14 12:18N 38°60' W 073°44'412.9
2018-Dec-14 12:00N 38°58' W 073°49'1018.2
2018-Dec-14 11:28N 38°55' W 074°00'5 9.9
2018-Dec-14 11:01N 38°53' W 074°06'713.2
2018-Dec-14 10:30N 38°51' W 074°14'3011.7
2018-Dec-14 07:57N 38°46' W 074°51'5 8.8
2018-Dec-14 07:26N 38°46' W 074°57'6 7.7
2018-Dec-14 06:43N 38°49' W 075°03'1210.8
2018-Dec-14 05:35N 39°00' W 075°09'512.0
2018-Dec-14 05:12N 39°05' W 075°11'418.3
2018-Dec-14 05:00N 39°08' W 075°13'713.4
2018-Dec-14 04:30N 39°14' W 075°18'811.8
2018-Dec-14 03:49N 39°20' W 075°25'1416.1
2018-Dec-14 02:55N 39°33' W 075°33'2 5.3
2018-Dec-14 02:30N 39°33' W 075°35'3 6.0
2018-Dec-14 02:01N 39°33' W 075°39'7 6.9
2018-Dec-14 01:00N 39°32' W 075°48'4 6.2
2018-Dec-14 00:20N 39°31' W 075°53'2 4.8
2018-Dec-13 23:55N 39°30' W 075°56'4 7.0
2018-Dec-13 23:17N 39°27' W 075°60'3 9.8
2018-Dec-13 22:58N 39°25' W 076°02'610.3
2018-Dec-13 22:26N 39°22' W 076°09'4 9.1
2018-Dec-13 21:58N 39°19' W 076°13'4 9.6
2018-Dec-13 21:30N 39°15' W 076°14'510.3
2018-Dec-13 21:00N 39°10' W 076°18'611.2
2018-Dec-13 20:30N 39°10' W 076°25'612.0
2018-Dec-13 20:00N 39°13' W 076°32'4 7.4
2018-Dec-13 19:30N 39°15' W 076°35'0 0.7
2018-Dec-13 19:00N 39°16' W 076°35'0 0.0
2018-Dec-13 18:30N 39°16' W 076°35'0 0.0
2018-Dec-13 18:00N 39°16' W 076°35'0 0.0
2018-Dec-13 17:30N 39°16' W 076°35'0 0.0
2018-Dec-13 17:00N 39°16' W 076°35'0 0.0
2018-Dec-13 16:30N 39°16' W 076°35'0 0.0
2018-Dec-13 16:00N 39°16' W 076°35'0 0.0
2018-Dec-13 15:30N 39°16' W 076°35'0 0.0
2018-Dec-13 15:00N 39°16' W 076°35'0 0.0
2018-Dec-13 14:30N 39°16' W 076°35'0 0.0
2018-Dec-13 14:00N 39°16' W 076°35'0 0.0
2018-Dec-13 13:30N 39°16' W 076°35'0 0.0
2018-Dec-13 12:59N 39°16' W 076°35'0 0.0
2018-Dec-13 12:30N 39°16' W 076°35'0 0.0
2018-Dec-13 12:00N 39°16' W 076°35'0 0.0
2018-Dec-13 11:30N 39°16' W 076°35'0 0.0
2018-Dec-13 11:00N 39°16' W 076°35'0 0.0
2018-Dec-13 10:30N 39°16' W 076°35'0 0.0
2018-Dec-13 10:00N 39°16' W 076°35'0 0.0
2018-Dec-13 09:30N 39°16' W 076°35'0 0.0
2018-Dec-13 09:00N 39°16' W 076°35'0 0.0
2018-Dec-13 08:30N 39°16' W 076°35'0 0.0
2018-Dec-13 08:00N 39°16' W 076°35'0 0.0
2018-Dec-13 07:30N 39°16' W 076°35'0 0.0
2018-Dec-13 06:59N 39°16' W 076°35'0 0.0
2018-Dec-13 06:29N 39°16' W 076°35'0 0.0
2018-Dec-13 05:59N 39°16' W 076°35'0 0.0
2018-Dec-13 05:30N 39°16' W 076°35'0 0.0
2018-Dec-13 04:59N 39°16' W 076°35'0 0.0
2018-Dec-13 04:29N 39°16' W 076°35'0 0.0
2018-Dec-13 03:59N 39°16' W 076°35'0 0.0
2018-Dec-13 03:30N 39°16' W 076°35'0 0.0
2018-Dec-13 02:59N 39°16' W 076°35'0 0.0
2018-Dec-13 02:29N 39°16' W 076°35'0 0.0
2018-Dec-13 01:59N 39°16' W 076°35'0 0.0
2018-Dec-13 01:29N 39°16' W 076°35'0 0.0
2018-Dec-13 01:00N 39°16' W 076°35'0 0.0
2018-Dec-13 00:30N 39°16' W 076°35'0 0.0
2018-Dec-12 23:59N 39°16' W 076°35'0 0.0
2018-Dec-12 23:29N 39°16' W 076°35'0 0.0
2018-Dec-12 22:59N 39°16' W 076°35'0 0.0
2018-Dec-12 22:29N 39°16' W 076°35'0 0.0
2018-Dec-12 21:59N 39°16' W 076°35'0 0.0
2018-Dec-12 21:29N 39°16' W 076°35'0 0.0
2018-Dec-12 20:59N 39°16' W 076°35'0 0.0
2018-Dec-12 20:29N 39°16' W 076°35'0 0.0
2018-Dec-12 19:59N 39°16' W 076°35'0 0.0
2018-Dec-12 19:29N 39°16' W 076°35'0 0.0
2018-Dec-12 18:59N 39°16' W 076°35'0 0.0
2018-Dec-12 18:29N 39°16' W 076°35'0 0.0
2018-Dec-12 17:59N 39°16' W 076°35'0 0.0
2018-Dec-12 17:29N 39°16' W 076°35'0 0.0
2018-Dec-12 16:59N 39°16' W 076°35'0 0.0
2018-Dec-12 16:28N 39°16' W 076°35'0 0.0
2018-Dec-12 15:58N 39°16' W 076°35'0 0.0
2018-Dec-12 15:28N 39°16' W 076°35'0 0.0
2018-Dec-12 14:58N 39°16' W 076°35'0 0.0
2018-Dec-12 14:28N 39°16' W 076°35'0 0.0
2018-Dec-12 13:58N 39°16' W 076°35'0 0.0
2018-Dec-12 13:28N 39°16' W 076°35'0 0.0
2018-Dec-12 12:58N 39°16' W 076°35'0 0.0
2018-Dec-12 12:28N 39°16' W 076°35'0 0.0
2018-Dec-12 11:58N 39°16' W 076°35'0 0.0
2018-Dec-12 11:28N 39°16' W 076°35'0 0.0
2018-Dec-12 10:58N 39°16' W 076°35'0 0.0
2018-Dec-12 10:28N 39°16' W 076°35'0 0.0
2018-Dec-12 09:58N 39°16' W 076°35'0 0.0
2018-Dec-12 09:28N 39°16' W 076°35'0 0.0
2018-Dec-12 08:58N 39°16' W 076°35'0 0.0
2018-Dec-12 08:28N 39°16' W 076°35'0 0.0
2018-Dec-12 07:58N 39°16' W 076°35'0 0.0
2018-Dec-12 07:28N 39°16' W 076°35'0 0.0
2018-Dec-12 06:58N 39°16' W 076°35'0 0.0
2018-Dec-12 06:28N 39°16' W 076°35'0 0.0
2018-Dec-12 05:58N 39°16' W 076°35'0 0.1
2018-Dec-12 05:28N 39°16' W 076°36'0 0.1
2018-Dec-12 04:58N 39°16' W 076°36'0 0.0
2018-Dec-12 04:28N 39°16' W 076°36'0 0.0
2018-Dec-12 03:58N 39°16' W 076°36'0 0.0
2018-Dec-12 03:28N 39°16' W 076°36'0 0.0
2018-Dec-12 02:58N 39°16' W 076°36'0 0.0
2018-Dec-12 02:28N 39°16' W 076°36'0 0.0
2018-Dec-12 01:58N 39°16' W 076°36'0 0.0
2018-Dec-12 01:28N 39°16' W 076°36'0 0.0
2018-Dec-12 00:58N 39°16' W 076°36'0 0.0
2018-Dec-12 00:28N 39°16' W 076°36'0 0.0
2018-Dec-11 23:58N 39°16' W 076°36'0 0.0
2018-Dec-11 23:28N 39°16' W 076°36'0 0.0
2018-Dec-11 22:58N 39°16' W 076°36'0 0.0
2018-Dec-11 22:26N 39°16' W 076°36'0 0.0
2018-Dec-11 21:58N 39°16' W 076°36'0 0.0
2018-Dec-11 21:28N 39°16' W 076°36'0 0.0
2018-Dec-11 20:58N 39°16' W 076°36'0 0.0
2018-Dec-11 20:28N 39°16' W 076°36'0 0.0
2018-Dec-11 19:58N 39°16' W 076°36'0 0.0
2018-Dec-11 19:28N 39°16' W 076°36'0 0.0
2018-Dec-11 18:58N 39°16' W 076°36'0 0.0
2018-Dec-11 18:28N 39°16' W 076°36'0 0.0
2018-Dec-11 17:58N 39°16' W 076°36'0 0.0
2018-Dec-11 17:28N 39°16' W 076°36'0 0.0
2018-Dec-11 16:58N 39°16' W 076°36'0 0.0
2018-Dec-11 16:28N 39°16' W 076°36'0 0.0
2018-Dec-11 15:58N 39°16' W 076°36'0 0.0
2018-Dec-11 15:28N 39°16' W 076°36'0 0.0
2018-Dec-11 14:58N 39°16' W 076°36'0 0.0
2018-Dec-11 14:28N 39°16' W 076°36'0 0.0
2018-Dec-11 13:58N 39°16' W 076°36'0 0.0
2018-Dec-11 13:28N 39°16' W 076°36'0 0.0
2018-Dec-11 12:58N 39°16' W 076°36'0 0.0
2018-Dec-11 12:28N 39°16' W 076°36'0 0.0
2018-Dec-11 12:00N 39°16' W 076°36'1 1.4
2018-Dec-11 11:30N 39°15' W 076°35'3 6.1
2018-Dec-11 11:00N 39°13' W 076°32'611.4
2018-Dec-11 10:30N 39°10' W 076°26'611.7
2018-Dec-11 10:00N 39°05' W 076°24'510.9
2018-Dec-11 09:30N 38°59' W 076°23'714.1
2018-Dec-11 09:00N 38°52' W 076°24'814.2
2018-Dec-11 08:27N 38°44' W 076°26'1718.3
2018-Dec-11 07:32N 38°28' W 076°23'0 2.8
2018-Dec-11 07:30N 38°28' W 076°23'13 9.7
2018-Dec-11 06:11N 38°16' W 076°17'614.3
2018-Dec-11 05:44N 38°10' W 076°14'414.9
2018-Dec-11 05:30N 38°06' W 076°14'714.8
2018-Dec-11 05:00N 37°59' W 076°12'814.3
2018-Dec-11 04:27N 37°52' W 076°09'714.7
2018-Dec-11 03:59N 37°45' W 076°11'1413.9
2018-Dec-11 03:01N 37°33' W 076°02'1115.4
2018-Dec-11 02:19N 37°23' W 076°05'3 9.5
2018-Dec-11 02:00N 37°20' W 076°05'  

Dump ship's entire track history